sensor_id;sensor_type;location;lat;lon;timestamp;P1;durP1;ratioP1;P2;durP2;ratioP2
40044;SDS011;25735;48.122;11.422;2023-04-16T00:01:47;7.43;;;5.22;;
40044;SDS011;25735;48.122;11.422;2023-04-16T00:04:12;5.97;;;4.47;;
40044;SDS011;25735;48.122;11.422;2023-04-16T00:06:38;6.70;;;4.90;;
40044;SDS011;25735;48.122;11.422;2023-04-16T00:09:03;7.72;;;5.30;;
40044;SDS011;25735;48.122;11.422;2023-04-16T00:11:28;6.87;;;5.50;;
40044;SDS011;25735;48.122;11.422;2023-04-16T00:13:53;6.27;;;5.10;;
40044;SDS011;25735;48.122;11.422;2023-04-16T00:16:18;6.50;;;5.00;;
40044;SDS011;25735;48.122;11.422;2023-04-16T00:18:43;8.07;;;6.20;;
40044;SDS011;25735;48.122;11.422;2023-04-16T00:21:09;6.80;;;5.78;;
40044;SDS011;25735;48.122;11.422;2023-04-16T00:23:34;7.70;;;6.17;;
40044;SDS011;25735;48.122;11.422;2023-04-16T00:25:59;6.72;;;5.80;;
40044;SDS011;25735;48.122;11.422;2023-04-16T00:28:25;7.03;;;6.03;;
40044;SDS011;25735;48.122;11.422;2023-04-16T00:30:51;6.32;;;4.90;;
40044;SDS011;25735;48.122;11.422;2023-04-16T00:33:16;8.38;;;5.47;;
40044;SDS011;25735;48.122;11.422;2023-04-16T00:35:44;6.17;;;5.30;;
40044;SDS011;25735;48.122;11.422;2023-04-16T00:38:09;8.45;;;5.72;;
40044;SDS011;25735;48.122;11.422;2023-04-16T00:40:34;5.97;;;4.90;;
40044;SDS011;25735;48.122;11.422;2023-04-16T00:42:59;6.82;;;5.72;;
40044;SDS011;25735;48.122;11.422;2023-04-16T00:45:24;8.33;;;5.60;;
40044;SDS011;25735;48.122;11.422;2023-04-16T00:47:50;8.07;;;5.23;;
40044;SDS011;25735;48.122;11.422;2023-04-16T00:50:15;9.80;;;6.30;;
40044;SDS011;25735;48.122;11.422;2023-04-16T00:52:41;5.90;;;4.60;;
40044;SDS011;25735;48.122;11.422;2023-04-16T00:55:06;7.93;;;5.82;;
40044;SDS011;25735;48.122;11.422;2023-04-16T00:57:32;7.43;;;4.85;;
40044;SDS011;25735;48.122;11.422;2023-04-16T00:59:57;7.97;;;5.03;;
40044;SDS011;25735;48.122;11.422;2023-04-16T01:02:22;6.25;;;4.72;;
40044;SDS011;25735;48.122;11.422;2023-04-16T01:04:47;6.88;;;5.18;;
40044;SDS011;25735;48.122;11.422;2023-04-16T01:07:13;4.82;;;4.25;;
40044;SDS011;25735;48.122;11.422;2023-04-16T01:09:38;5.00;;;4.22;;
40044;SDS011;25735;48.122;11.422;2023-04-16T01:12:03;5.45;;;4.13;;
40044;SDS011;25735;48.122;11.422;2023-04-16T01:14:28;9.43;;;4.67;;
40044;SDS011;25735;48.122;11.422;2023-04-16T01:16:53;5.80;;;4.45;;
40044;SDS011;25735;48.122;11.422;2023-04-16T01:19:18;5.63;;;4.27;;
40044;SDS011;25735;48.122;11.422;2023-04-16T01:21:43;5.17;;;3.97;;
40044;SDS011;25735;48.122;11.422;2023-04-16T01:24:09;6.28;;;4.18;;
40044;SDS011;25735;48.122;11.422;2023-04-16T01:26:34;5.90;;;4.40;;
40044;SDS011;25735;48.122;11.422;2023-04-16T01:28:59;4.90;;;4.40;;
40044;SDS011;25735;48.122;11.422;2023-04-16T01:31:25;7.00;;;5.03;;
40044;SDS011;25735;48.122;11.422;2023-04-16T01:33:50;6.70;;;5.22;;
40044;SDS011;25735;48.122;11.422;2023-04-16T01:36:15;8.70;;;5.63;;
40044;SDS011;25735;48.122;11.422;2023-04-16T01:38:40;6.47;;;5.30;;
40044;SDS011;25735;48.122;11.422;2023-04-16T01:41:05;7.72;;;5.68;;
40044;SDS011;25735;48.122;11.422;2023-04-16T01:43:31;7.87;;;5.40;;
40044;SDS011;25735;48.122;11.422;2023-04-16T01:45:58;7.22;;;5.55;;
40044;SDS011;25735;48.122;11.422;2023-04-16T01:48:31;6.18;;;4.63;;
40044;SDS011;25735;48.122;11.422;2023-04-16T01:50:56;6.10;;;4.47;;
40044;SDS011;25735;48.122;11.422;2023-04-16T01:53:22;6.90;;;5.40;;
40044;SDS011;25735;48.122;11.422;2023-04-16T01:55:47;5.90;;;4.50;;
40044;SDS011;25735;48.122;11.422;2023-04-16T01:58:12;4.97;;;4.10;;
40044;SDS011;25735;48.122;11.422;2023-04-16T02:00:38;6.53;;;5.18;;
40044;SDS011;25735;48.122;11.422;2023-04-16T02:03:03;6.97;;;5.20;;
40044;SDS011;25735;48.122;11.422;2023-04-16T02:05:29;5.90;;;5.10;;
40044;SDS011;25735;48.122;11.422;2023-04-16T02:07:54;6.57;;;4.82;;
40044;SDS011;25735;48.122;11.422;2023-04-16T02:10:19;7.93;;;5.13;;
40044;SDS011;25735;48.122;11.422;2023-04-16T02:12:44;8.13;;;5.18;;
40044;SDS011;25735;48.122;11.422;2023-04-16T02:15:10;6.72;;;5.22;;
40044;SDS011;25735;48.122;11.422;2023-04-16T02:17:35;7.43;;;5.50;;
40044;SDS011;25735;48.122;11.422;2023-04-16T02:20:00;9.60;;;6.20;;
40044;SDS011;25735;48.122;11.422;2023-04-16T02:22:27;7.70;;;5.97;;
40044;SDS011;25735;48.122;11.422;2023-04-16T02:24:52;6.73;;;5.67;;
40044;SDS011;25735;48.122;11.422;2023-04-16T02:27:18;6.90;;;5.55;;
40044;SDS011;25735;48.122;11.422;2023-04-16T02:29:43;6.80;;;5.60;;
40044;SDS011;25735;48.122;11.422;2023-04-16T02:32:08;6.43;;;5.40;;
40044;SDS011;25735;48.122;11.422;2023-04-16T02:34:33;6.60;;;5.07;;
40044;SDS011;25735;48.122;11.422;2023-04-16T02:36:59;7.05;;;5.20;;
40044;SDS011;25735;48.122;11.422;2023-04-16T02:39:24;6.97;;;5.43;;
40044;SDS011;25735;48.122;11.422;2023-04-16T02:41:49;7.87;;;5.93;;
40044;SDS011;25735;48.122;11.422;2023-04-16T02:44:15;6.70;;;5.13;;
40044;SDS011;25735;48.122;11.422;2023-04-16T02:46:40;6.47;;;5.40;;
40044;SDS011;25735;48.122;11.422;2023-04-16T02:49:05;5.83;;;4.60;;
40044;SDS011;25735;48.122;11.422;2023-04-16T02:51:30;5.43;;;4.47;;
40044;SDS011;25735;48.122;11.422;2023-04-16T02:53:57;5.45;;;4.30;;
40044;SDS011;25735;48.122;11.422;2023-04-16T02:56:22;6.13;;;4.53;;
40044;SDS011;25735;48.122;11.422;2023-04-16T02:58:47;5.50;;;4.27;;
40044;SDS011;25735;48.122;11.422;2023-04-16T03:01:12;4.60;;;3.85;;
40044;SDS011;25735;48.122;11.422;2023-04-16T03:03:37;5.03;;;3.70;;
40044;SDS011;25735;48.122;11.422;2023-04-16T03:06:02;4.28;;;3.63;;
40044;SDS011;25735;48.122;11.422;2023-04-16T03:08:28;4.38;;;3.50;;
40044;SDS011;25735;48.122;11.422;2023-04-16T03:10:53;4.18;;;3.78;;
40044;SDS011;25735;48.122;11.422;2023-04-16T03:13:18;3.57;;;3.27;;
40044;SDS011;25735;48.122;11.422;2023-04-16T03:15:47;4.30;;;3.58;;
40044;SDS011;25735;48.122;11.422;2023-04-16T03:18:12;4.65;;;3.80;;
40044;SDS011;25735;48.122;11.422;2023-04-16T03:20:37;3.95;;;3.15;;
40044;SDS011;25735;48.122;11.422;2023-04-16T03:23:02;4.43;;;3.63;;
40044;SDS011;25735;48.122;11.422;2023-04-16T03:25:27;3.80;;;3.33;;
40044;SDS011;25735;48.122;11.422;2023-04-16T03:27:53;3.75;;;3.20;;
40044;SDS011;25735;48.122;11.422;2023-04-16T03:30:18;3.87;;;3.37;;
40044;SDS011;25735;48.122;11.422;2023-04-16T03:32:43;5.00;;;3.80;;
40044;SDS011;25735;48.122;11.422;2023-04-16T03:35:08;4.68;;;3.58;;
40044;SDS011;25735;48.122;11.422;2023-04-16T03:37:33;6.07;;;4.22;;
40044;SDS011;25735;48.122;11.422;2023-04-16T03:39:59;4.72;;;4.05;;
40044;SDS011;25735;48.122;11.422;2023-04-16T03:42:25;5.95;;;4.38;;
40044;SDS011;25735;48.122;11.422;2023-04-16T03:44:50;5.22;;;4.07;;
40044;SDS011;25735;48.122;11.422;2023-04-16T03:47:17;4.53;;;3.85;;
40044;SDS011;25735;48.122;11.422;2023-04-16T03:49:42;4.53;;;3.93;;
40044;SDS011;25735;48.122;11.422;2023-04-16T03:52:07;4.80;;;4.00;;
40044;SDS011;25735;48.122;11.422;2023-04-16T03:54:32;5.15;;;3.78;;
40044;SDS011;25735;48.122;11.422;2023-04-16T03:56:58;5.25;;;3.75;;
40044;SDS011;25735;48.122;11.422;2023-04-16T03:59:23;6.27;;;5.10;;
40044;SDS011;25735;48.122;11.422;2023-04-16T04:01:48;5.47;;;4.47;;
40044;SDS011;25735;48.122;11.422;2023-04-16T04:04:13;5.63;;;4.47;;
40044;SDS011;25735;48.122;11.422;2023-04-16T04:06:39;5.95;;;4.53;;
40044;SDS011;25735;48.122;11.422;2023-04-16T04:09:04;6.68;;;5.22;;
40044;SDS011;25735;48.122;11.422;2023-04-16T04:11:30;5.90;;;4.68;;
40044;SDS011;25735;48.122;11.422;2023-04-16T04:13:55;5.63;;;4.43;;
40044;SDS011;25735;48.122;11.422;2023-04-16T04:16:20;6.05;;;4.88;;
40044;SDS011;25735;48.122;11.422;2023-04-16T04:18:45;6.47;;;5.23;;
40044;SDS011;25735;48.122;11.422;2023-04-16T04:21:10;7.03;;;4.97;;
40044;SDS011;25735;48.122;11.422;2023-04-16T04:23:36;6.83;;;4.33;;
40044;SDS011;25735;48.122;11.422;2023-04-16T04:26:01;8.00;;;5.97;;
40044;SDS011;25735;48.122;11.422;2023-04-16T04:28:31;5.30;;;4.68;;
40044;SDS011;25735;48.122;11.422;2023-04-16T04:30:56;7.97;;;5.72;;
40044;SDS011;25735;48.122;11.422;2023-04-16T04:33:22;6.35;;;5.03;;
40044;SDS011;25735;48.122;11.422;2023-04-16T04:35:47;7.18;;;5.25;;
40044;SDS011;25735;48.122;11.422;2023-04-16T04:38:12;6.60;;;4.97;;
40044;SDS011;25735;48.122;11.422;2023-04-16T04:40:37;6.60;;;5.30;;
40044;SDS011;25735;48.122;11.422;2023-04-16T04:43:03;5.90;;;4.85;;
40044;SDS011;25735;48.122;11.422;2023-04-16T04:45:28;6.72;;;4.95;;
40044;SDS011;25735;48.122;11.422;2023-04-16T04:47:53;6.03;;;5.33;;
40044;SDS011;25735;48.122;11.422;2023-04-16T04:50:18;6.65;;;5.55;;
40044;SDS011;25735;48.122;11.422;2023-04-16T04:52:43;8.13;;;4.88;;
40044;SDS011;25735;48.122;11.422;2023-04-16T04:55:09;5.97;;;4.80;;
40044;SDS011;25735;48.122;11.422;2023-04-16T04:57:34;6.67;;;5.23;;
40044;SDS011;25735;48.122;11.422;2023-04-16T04:59:59;6.50;;;5.40;;
40044;SDS011;25735;48.122;11.422;2023-04-16T05:02:27;6.18;;;4.65;;
40044;SDS011;25735;48.122;11.422;2023-04-16T05:04:52;7.43;;;5.45;;
40044;SDS011;25735;48.122;11.422;2023-04-16T05:07:17;6.93;;;5.60;;
40044;SDS011;25735;48.122;11.422;2023-04-16T05:09:42;6.27;;;4.90;;
40044;SDS011;25735;48.122;11.422;2023-04-16T05:12:07;7.43;;;5.70;;
40044;SDS011;25735;48.122;11.422;2023-04-16T05:14:32;6.43;;;5.20;;
40044;SDS011;25735;48.122;11.422;2023-04-16T05:16:58;5.47;;;4.30;;
40044;SDS011;25735;48.122;11.422;2023-04-16T05:19:23;4.77;;;3.87;;
40044;SDS011;25735;48.122;11.422;2023-04-16T05:21:48;6.60;;;4.60;;
40044;SDS011;25735;48.122;11.422;2023-04-16T05:24:13;6.17;;;4.47;;
40044;SDS011;25735;48.122;11.422;2023-04-16T05:26:38;5.43;;;4.18;;
40044;SDS011;25735;48.122;11.422;2023-04-16T05:29:03;4.63;;;4.00;;
40044;SDS011;25735;48.122;11.422;2023-04-16T05:31:29;5.25;;;3.90;;
40044;SDS011;25735;48.122;11.422;2023-04-16T05:33:54;4.50;;;3.72;;
40044;SDS011;25735;48.122;11.422;2023-04-16T05:36:19;4.28;;;3.75;;
40044;SDS011;25735;48.122;11.422;2023-04-16T05:38:44;4.07;;;3.53;;
40044;SDS011;25735;48.122;11.422;2023-04-16T05:41:09;4.32;;;3.80;;
40044;SDS011;25735;48.122;11.422;2023-04-16T05:43:34;2.87;;;2.60;;
40044;SDS011;25735;48.122;11.422;2023-04-16T05:46:00;3.20;;;2.83;;
40044;SDS011;25735;48.122;11.422;2023-04-16T05:48:25;3.53;;;3.22;;
40044;SDS011;25735;48.122;11.422;2023-04-16T05:50:50;2.33;;;2.13;;
40044;SDS011;25735;48.122;11.422;2023-04-16T05:53:15;4.72;;;2.83;;
40044;SDS011;25735;48.122;11.422;2023-04-16T05:55:42;2.53;;;2.33;;
40044;SDS011;25735;48.122;11.422;2023-04-16T05:58:08;2.63;;;2.35;;
40044;SDS011;25735;48.122;11.422;2023-04-16T06:00:33;1.83;;;1.73;;
40044;SDS011;25735;48.122;11.422;2023-04-16T06:02:58;1.90;;;1.45;;
40044;SDS011;25735;48.122;11.422;2023-04-16T06:05:24;1.90;;;1.30;;
40044;SDS011;25735;48.122;11.422;2023-04-16T06:07:50;1.77;;;1.58;;
40044;SDS011;25735;48.122;11.422;2023-04-16T06:10:15;1.63;;;1.53;;
40044;SDS011;25735;48.122;11.422;2023-04-16T06:12:40;1.60;;;1.50;;
40044;SDS011;25735;48.122;11.422;2023-04-16T06:15:06;1.63;;;1.53;;
40044;SDS011;25735;48.122;11.422;2023-04-16T06:17:31;3.08;;;1.25;;
40044;SDS011;25735;48.122;11.422;2023-04-16T06:19:56;1.33;;;1.23;;
40044;SDS011;25735;48.122;11.422;2023-04-16T06:22:21;1.70;;;1.60;;
40044;SDS011;25735;48.122;11.422;2023-04-16T06:24:47;1.40;;;1.30;;
40044;SDS011;25735;48.122;11.422;2023-04-16T06:27:13;1.10;;;1.00;;
40044;SDS011;25735;48.122;11.422;2023-04-16T06:29:38;3.95;;;1.80;;
40044;SDS011;25735;48.122;11.422;2023-04-16T06:32:03;1.33;;;1.15;;
40044;SDS011;25735;48.122;11.422;2023-04-16T06:34:28;1.10;;;0.88;;
40044;SDS011;25735;48.122;11.422;2023-04-16T06:36:53;0.63;;;0.60;;
40044;SDS011;25735;48.122;11.422;2023-04-16T06:39:19;0.80;;;0.80;;
40044;SDS011;25735;48.122;11.422;2023-04-16T06:41:45;0.60;;;0.60;;
40044;SDS011;25735;48.122;11.422;2023-04-16T06:44:11;0.52;;;0.30;;
40044;SDS011;25735;48.122;11.422;2023-04-16T06:46:36;0.73;;;0.50;;
40044;SDS011;25735;48.122;11.422;2023-04-16T06:49:01;0.93;;;0.70;;
40044;SDS011;25735;48.122;11.422;2023-04-16T06:51:26;0.30;;;0.30;;
40044;SDS011;25735;48.122;11.422;2023-04-16T06:53:51;1.95;;;1.15;;
40044;SDS011;25735;48.122;11.422;2023-04-16T06:56:17;2.17;;;1.70;;
40044;SDS011;25735;48.122;11.422;2023-04-16T06:58:42;0.50;;;0.50;;
40044;SDS011;25735;48.122;11.422;2023-04-16T07:01:07;2.47;;;1.80;;
40044;SDS011;25735;48.122;11.422;2023-04-16T07:03:33;3.72;;;2.38;;
40044;SDS011;25735;48.122;11.422;2023-04-16T07:05:59;0.98;;;0.60;;
40044;SDS011;25735;48.122;11.422;2023-04-16T07:08:24;0.50;;;0.43;;
40044;SDS011;25735;48.122;11.422;2023-04-16T07:10:49;1.92;;;0.38;;
40044;SDS011;25735;48.122;11.422;2023-04-16T07:13:15;0.20;;;0.20;;
40044;SDS011;25735;48.122;11.422;2023-04-16T07:15:42;0.30;;;0.20;;
40044;SDS011;25735;48.122;11.422;2023-04-16T07:18:07;0.90;;;0.20;;
40044;SDS011;25735;48.122;11.422;2023-04-16T07:20:32;0.30;;;0.23;;
40044;SDS011;25735;48.122;11.422;2023-04-16T07:22:57;0.23;;;0.20;;
40044;SDS011;25735;48.122;11.422;2023-04-16T07:25:23;0.10;;;0.10;;
40044;SDS011;25735;48.122;11.422;2023-04-16T07:27:48;1.15;;;0.35;;
40044;SDS011;25735;48.122;11.422;2023-04-16T07:30:13;0.30;;;0.20;;
40044;SDS011;25735;48.122;11.422;2023-04-16T07:32:39;0.43;;;0.30;;
40044;SDS011;25735;48.122;11.422;2023-04-16T07:35:04;2.10;;;1.50;;
40044;SDS011;25735;48.122;11.422;2023-04-16T07:37:29;0.60;;;0.50;;
40044;SDS011;25735;48.122;11.422;2023-04-16T07:39:54;0.43;;;0.40;;
40044;SDS011;25735;48.122;11.422;2023-04-16T07:42:21;0.20;;;0.20;;
40044;SDS011;25735;48.122;11.422;2023-04-16T07:44:46;0.20;;;0.20;;
40044;SDS011;25735;48.122;11.422;2023-04-16T07:47:11;0.28;;;0.25;;
40044;SDS011;25735;48.122;11.422;2023-04-16T07:49:37;0.67;;;0.30;;
40044;SDS011;25735;48.122;11.422;2023-04-16T07:52:02;0.55;;;0.20;;
40044;SDS011;25735;48.122;11.422;2023-04-16T07:54:27;0.73;;;0.30;;
40044;SDS011;25735;48.122;11.422;2023-04-16T07:56:52;0.25;;;0.25;;
40044;SDS011;25735;48.122;11.422;2023-04-16T07:59:17;0.40;;;0.20;;
40044;SDS011;25735;48.122;11.422;2023-04-16T08:01:43;0.10;;;0.10;;
40044;SDS011;25735;48.122;11.422;2023-04-16T08:04:08;1.00;;;0.10;;
40044;SDS011;25735;48.122;11.422;2023-04-16T08:06:33;0.90;;;0.10;;
40044;SDS011;25735;48.122;11.422;2023-04-16T08:08:58;0.20;;;0.20;;
40044;SDS011;25735;48.122;11.422;2023-04-16T08:11:23;0.17;;;0.17;;
40044;SDS011;25735;48.122;11.422;2023-04-16T08:13:48;0.20;;;0.13;;
40044;SDS011;25735;48.122;11.422;2023-04-16T08:16:14;0.60;;;0.10;;
40044;SDS011;25735;48.122;11.422;2023-04-16T08:18:39;0.10;;;0.10;;
40044;SDS011;25735;48.122;11.422;2023-04-16T08:21:04;0.20;;;0.15;;
40044;SDS011;25735;48.122;11.422;2023-04-16T08:23:29;0.17;;;0.17;;
40044;SDS011;25735;48.122;11.422;2023-04-16T08:25:54;0.00;;;0.00;;
40044;SDS011;25735;48.122;11.422;2023-04-16T08:28:20;0.57;;;0.20;;
40044;SDS011;25735;48.122;11.422;2023-04-16T08:30:45;0.20;;;0.03;;
40044;SDS011;25735;48.122;11.422;2023-04-16T08:33:10;0.28;;;0.05;;
40044;SDS011;25735;48.122;11.422;2023-04-16T08:35:36;2.05;;;0.25;;
40044;SDS011;25735;48.122;11.422;2023-04-16T08:38:02;0.20;;;0.20;;
40044;SDS011;25735;48.122;11.422;2023-04-16T08:40:27;0.20;;;0.20;;
40044;SDS011;25735;48.122;11.422;2023-04-16T08:42:53;0.30;;;0.17;;
40044;SDS011;25735;48.122;11.422;2023-04-16T08:45:22;0.70;;;0.70;;
40044;SDS011;25735;48.122;11.422;2023-04-16T08:47:49;0.15;;;0.15;;
40044;SDS011;25735;48.122;11.422;2023-04-16T08:50:15;0.20;;;0.20;;
40044;SDS011;25735;48.122;11.422;2023-04-16T08:55:17;0.60;;;0.20;;
40044;SDS011;25735;48.122;11.422;2023-04-16T08:57:58;0.10;;;0.10;;
40044;SDS011;25735;48.122;11.422;2023-04-16T09:00:23;0.30;;;0.30;;
40044;SDS011;25735;48.122;11.422;2023-04-16T09:02:49;0.30;;;0.20;;
40044;SDS011;25735;48.122;11.422;2023-04-16T09:05:15;0.20;;;0.20;;
40044;SDS011;25735;48.122;11.422;2023-04-16T09:07:46;2.00;;;0.28;;
40044;SDS011;25735;48.122;11.422;2023-04-16T09:10:11;0.32;;;0.30;;
40044;SDS011;25735;48.122;11.422;2023-04-16T09:12:36;0.10;;;0.10;;
40044;SDS011;25735;48.122;11.422;2023-04-16T09:15:02;1.10;;;0.68;;
40044;SDS011;25735;48.122;11.422;2023-04-16T09:17:28;0.45;;;0.43;;
40044;SDS011;25735;48.122;11.422;2023-04-16T09:19:53;0.22;;;0.20;;
40044;SDS011;25735;48.122;11.422;2023-04-16T09:22:19;0.27;;;0.10;;
40044;SDS011;25735;48.122;11.422;2023-04-16T09:24:44;0.22;;;0.20;;
40044;SDS011;25735;48.122;11.422;2023-04-16T09:27:10;0.10;;;0.10;;
40044;SDS011;25735;48.122;11.422;2023-04-16T09:29:36;0.10;;;0.10;;
40044;SDS011;25735;48.122;11.422;2023-04-16T09:32:02;0.00;;;0.00;;
40044;SDS011;25735;48.122;11.422;2023-04-16T09:34:28;0.10;;;0.10;;
40044;SDS011;25735;48.122;11.422;2023-04-16T09:36:53;0.10;;;0.10;;
40044;SDS011;25735;48.122;11.422;2023-04-16T09:39:18;0.13;;;0.13;;
40044;SDS011;25735;48.122;11.422;2023-04-16T09:41:44;0.10;;;0.10;;
40044;SDS011;25735;48.122;11.422;2023-04-16T09:44:11;0.30;;;0.20;;
40044;SDS011;25735;48.122;11.422;2023-04-16T09:46:39;0.33;;;0.20;;
40044;SDS011;25735;48.122;11.422;2023-04-16T09:49:08;2.17;;;1.35;;
40044;SDS011;25735;48.122;11.422;2023-04-16T09:51:37;0.20;;;0.13;;
40044;SDS011;25735;48.122;11.422;2023-04-16T09:54:05;0.20;;;0.20;;
40044;SDS011;25735;48.122;11.422;2023-04-16T09:56:31;0.40;;;0.15;;
40044;SDS011;25735;48.122;11.422;2023-04-16T09:58:58;0.10;;;0.10;;
40044;SDS011;25735;48.122;11.422;2023-04-16T10:01:23;0.20;;;0.20;;
40044;SDS011;25735;48.122;11.422;2023-04-16T10:03:49;0.10;;;0.10;;
40044;SDS011;25735;48.122;11.422;2023-04-16T10:06:19;0.00;;;0.00;;
40044;SDS011;25735;48.122;11.422;2023-04-16T10:08:47;0.10;;;0.10;;
40044;SDS011;25735;48.122;11.422;2023-04-16T10:11:13;0.20;;;0.10;;
40044;SDS011;25735;48.122;11.422;2023-04-16T10:13:38;0.28;;;0.20;;
40044;SDS011;25735;48.122;11.422;2023-04-16T10:16:04;0.10;;;0.10;;
40044;SDS011;25735;48.122;11.422;2023-04-16T10:18:30;0.00;;;0.00;;
40044;SDS011;25735;48.122;11.422;2023-04-16T10:20:55;0.10;;;0.10;;
40044;SDS011;25735;48.122;11.422;2023-04-16T10:23:21;0.13;;;0.13;;
40044;SDS011;25735;48.122;11.422;2023-04-16T10:25:47;0.10;;;0.10;;
40044;SDS011;25735;48.122;11.422;2023-04-16T10:28:12;0.85;;;0.30;;
40044;SDS011;25735;48.122;11.422;2023-04-16T10:30:37;0.20;;;0.10;;
40044;SDS011;25735;48.122;11.422;2023-04-16T10:33:03;0.20;;;0.20;;
40044;SDS011;25735;48.122;11.422;2023-04-16T10:35:29;0.10;;;0.10;;
40044;SDS011;25735;48.122;11.422;2023-04-16T10:37:58;0.15;;;0.15;;
40044;SDS011;25735;48.122;11.422;2023-04-16T10:40:42;1.13;;;0.10;;
40044;SDS011;25735;48.122;11.422;2023-04-16T10:43:08;0.30;;;0.20;;
40044;SDS011;25735;48.122;11.422;2023-04-16T10:45:41;0.22;;;0.10;;
40044;SDS011;25735;48.122;11.422;2023-04-16T10:48:06;0.10;;;0.10;;
40044;SDS011;25735;48.122;11.422;2023-04-16T10:50:36;0.05;;;0.03;;
40044;SDS011;25735;48.122;11.422;2023-04-16T10:58:43;0.20;;;0.10;;
40044;SDS011;25735;48.122;11.422;2023-04-16T11:01:12;0.10;;;0.10;;
40044;SDS011;25735;48.122;11.422;2023-04-16T11:03:41;0.28;;;0.20;;
40044;SDS011;25735;48.122;11.422;2023-04-16T11:11:04;0.20;;;0.20;;
40044;SDS011;25735;48.122;11.422;2023-04-16T11:13:30;0.20;;;0.10;;
40044;SDS011;25735;48.122;11.422;2023-04-16T11:15:56;0.10;;;0.10;;
40044;SDS011;25735;48.122;11.422;2023-04-16T11:18:21;0.05;;;0.00;;
40044;SDS011;25735;48.122;11.422;2023-04-16T11:20:46;0.00;;;0.00;;
40044;SDS011;25735;48.122;11.422;2023-04-16T11:23:12;0.20;;;0.20;;
40044;SDS011;25735;48.122;11.422;2023-04-16T11:25:37;0.20;;;0.10;;
40044;SDS011;25735;48.122;11.422;2023-04-16T11:28:02;0.60;;;0.13;;
40044;SDS011;25735;48.122;11.422;2023-04-16T11:30:31;0.37;;;0.20;;
40044;SDS011;25735;48.122;11.422;2023-04-16T11:32:57;0.20;;;0.17;;
40044;SDS011;25735;48.122;11.422;2023-04-16T11:35:23;0.60;;;0.20;;
40044;SDS011;25735;48.122;11.422;2023-04-16T11:37:48;0.10;;;0.10;;
40044;SDS011;25735;48.122;11.422;2023-04-16T11:40:13;1.83;;;0.30;;
40044;SDS011;25735;48.122;11.422;2023-04-16T11:42:39;0.30;;;0.20;;
40044;SDS011;25735;48.122;11.422;2023-04-16T11:45:05;0.43;;;0.20;;
40044;SDS011;25735;48.122;11.422;2023-04-16T11:47:33;0.20;;;0.20;;
40044;SDS011;25735;48.122;11.422;2023-04-16T11:50:16;0.45;;;0.22;;
40044;SDS011;25735;48.122;11.422;2023-04-16T11:52:41;0.10;;;0.10;;
40044;SDS011;25735;48.122;11.422;2023-04-16T11:55:06;0.30;;;0.20;;
40044;SDS011;25735;48.122;11.422;2023-04-16T11:57:32;0.32;;;0.32;;
40044;SDS011;25735;48.122;11.422;2023-04-16T11:59:57;0.70;;;0.30;;
40044;SDS011;25735;48.122;11.422;2023-04-16T12:02:36;0.15;;;0.15;;
40044;SDS011;25735;48.122;11.422;2023-04-16T12:05:02;0.10;;;0.10;;
40044;SDS011;25735;48.122;11.422;2023-04-16T12:07:27;0.20;;;0.10;;
40044;SDS011;25735;48.122;11.422;2023-04-16T12:10:03;0.30;;;0.25;;
40044;SDS011;25735;48.122;11.422;2023-04-16T12:12:30;0.50;;;0.20;;
40044;SDS011;25735;48.122;11.422;2023-04-16T12:14:55;0.90;;;0.30;;
40044;SDS011;25735;48.122;11.422;2023-04-16T12:17:21;0.15;;;0.15;;
40044;SDS011;25735;48.122;11.422;2023-04-16T12:19:57;0.40;;;0.30;;
40044;SDS011;25735;48.122;11.422;2023-04-16T12:22:29;0.50;;;0.20;;
40044;SDS011;25735;48.122;11.422;2023-04-16T12:24:58;0.20;;;0.20;;
40044;SDS011;25735;48.122;11.422;2023-04-16T12:27:23;0.25;;;0.22;;
40044;SDS011;25735;48.122;11.422;2023-04-16T12:30:02;1.67;;;0.38;;
40044;SDS011;25735;48.122;11.422;2023-04-16T12:32:27;0.77;;;0.30;;
40044;SDS011;25735;48.122;11.422;2023-04-16T12:34:53;0.40;;;0.40;;
40044;SDS011;25735;48.122;11.422;2023-04-16T12:37:18;0.73;;;0.30;;
40044;SDS011;25735;48.122;11.422;2023-04-16T12:39:43;0.13;;;0.13;;
40044;SDS011;25735;48.122;11.422;2023-04-16T12:42:08;0.55;;;0.50;;
40044;SDS011;25735;48.122;11.422;2023-04-16T12:44:35;0.30;;;0.30;;
40044;SDS011;25735;48.122;11.422;2023-04-16T12:47:00;0.52;;;0.20;;
40044;SDS011;25735;48.122;11.422;2023-04-16T12:49:25;0.20;;;0.20;;
40044;SDS011;25735;48.122;11.422;2023-04-16T12:51:50;0.40;;;0.10;;
40044;SDS011;25735;48.122;11.422;2023-04-16T12:54:16;2.47;;;0.20;;
40044;SDS011;25735;48.122;11.422;2023-04-16T12:56:41;0.10;;;0.10;;
40044;SDS011;25735;48.122;11.422;2023-04-16T12:59:06;0.20;;;0.20;;
40044;SDS011;25735;48.122;11.422;2023-04-16T13:01:34;0.35;;;0.35;;
40044;SDS011;25735;48.122;11.422;2023-04-16T13:04:01;0.17;;;0.10;;
40044;SDS011;25735;48.122;11.422;2023-04-16T13:06:26;0.25;;;0.20;;
40044;SDS011;25735;48.122;11.422;2023-04-16T13:08:51;0.30;;;0.30;;
40044;SDS011;25735;48.122;11.422;2023-04-16T13:11:16;0.30;;;0.30;;
40044;SDS011;25735;48.122;11.422;2023-04-16T13:13:41;0.40;;;0.30;;
40044;SDS011;25735;48.122;11.422;2023-04-16T13:16:06;0.73;;;0.10;;
40044;SDS011;25735;48.122;11.422;2023-04-16T13:18:32;0.00;;;0.00;;
40044;SDS011;25735;48.122;11.422;2023-04-16T13:20:57;0.20;;;0.10;;
40044;SDS011;25735;48.122;11.422;2023-04-16T13:23:23;0.30;;;0.20;;
40044;SDS011;25735;48.122;11.422;2023-04-16T13:25:48;2.42;;;0.55;;
40044;SDS011;25735;48.122;11.422;2023-04-16T13:28:13;0.20;;;0.20;;
40044;SDS011;25735;48.122;11.422;2023-04-16T13:30:38;0.10;;;0.10;;
40044;SDS011;25735;48.122;11.422;2023-04-16T13:33:04;0.47;;;0.20;;
40044;SDS011;25735;48.122;11.422;2023-04-16T13:35:30;0.30;;;0.20;;
40044;SDS011;25735;48.122;11.422;2023-04-16T13:37:55;0.20;;;0.13;;
40044;SDS011;25735;48.122;11.422;2023-04-16T13:40:20;0.00;;;0.00;;
40044;SDS011;25735;48.122;11.422;2023-04-16T13:42:45;0.30;;;0.20;;
40044;SDS011;25735;48.122;11.422;2023-04-16T13:45:10;0.20;;;0.20;;
40044;SDS011;25735;48.122;11.422;2023-04-16T13:47:37;1.50;;;0.13;;
40044;SDS011;25735;48.122;11.422;2023-04-16T13:50:03;0.20;;;0.20;;
40044;SDS011;25735;48.122;11.422;2023-04-16T13:52:28;0.93;;;0.20;;
40044;SDS011;25735;48.122;11.422;2023-04-16T13:54:53;0.43;;;0.23;;
40044;SDS011;25735;48.122;11.422;2023-04-16T13:57:18;0.28;;;0.20;;
40044;SDS011;25735;48.122;11.422;2023-04-16T13:59:44;0.30;;;0.20;;
40044;SDS011;25735;48.122;11.422;2023-04-16T14:02:09;0.40;;;0.30;;
40044;SDS011;25735;48.122;11.422;2023-04-16T14:04:35;0.20;;;0.20;;
40044;SDS011;25735;48.122;11.422;2023-04-16T14:07:00;0.27;;;0.17;;
40044;SDS011;25735;48.122;11.422;2023-04-16T14:09:25;0.22;;;0.22;;
40044;SDS011;25735;48.122;11.422;2023-04-16T14:11:51;0.60;;;0.32;;
40044;SDS011;25735;48.122;11.422;2023-04-16T14:14:16;0.50;;;0.43;;
40044;SDS011;25735;48.122;11.422;2023-04-16T14:16:41;0.20;;;0.20;;
40044;SDS011;25735;48.122;11.422;2023-04-16T14:19:07;0.30;;;0.30;;
40044;SDS011;25735;48.122;11.422;2023-04-16T14:21:32;0.30;;;0.30;;
40044;SDS011;25735;48.122;11.422;2023-04-16T14:23:57;0.57;;;0.43;;
40044;SDS011;25735;48.122;11.422;2023-04-16T14:26:22;0.40;;;0.40;;
40044;SDS011;25735;48.122;11.422;2023-04-16T14:28:49;0.63;;;0.40;;
40044;SDS011;25735;48.122;11.422;2023-04-16T14:31:15;0.75;;;0.40;;
40044;SDS011;25735;48.122;11.422;2023-04-16T14:33:41;0.73;;;0.43;;
40044;SDS011;25735;48.122;11.422;2023-04-16T14:36:07;1.10;;;0.63;;
40044;SDS011;25735;48.122;11.422;2023-04-16T14:38:32;0.43;;;0.40;;